createdAt,value
2022-08-02T12:29:57.917Z,96249.19
2022-08-02T12:31:01.820Z,96253.16
2022-08-02T12:32:07.547Z,96259.22
2022-08-02T12:33:13.232Z,96258.00
2022-08-02T12:34:21.364Z,96252.94
2022-08-02T12:35:51.716Z,96245.50
2022-08-02T12:37:18.577Z,96250.66
2022-08-02T12:38:23.318Z,96257.16
2022-08-02T12:39:39.144Z,96256.78
2022-08-02T12:40:44.055Z,96253.59
2022-08-02T12:41:57.488Z,96252.91
2022-08-02T12:43:05.144Z,96257.81
2022-08-02T12:44:19.848Z,96247.28
2022-08-02T12:45:25.046Z,96250.56
2022-08-02T12:46:31.569Z,96245.91
2022-08-02T12:47:49.044Z,96236.75
2022-08-02T12:49:16.901Z,96243.28
2022-08-02T12:50:22.778Z,96237.97
2022-08-02T12:51:56.417Z,96236.22
2022-08-02T12:52:52.520Z,96238.22
2022-08-02T12:53:59.715Z,96235.22
2022-08-02T12:55:18.737Z,96239.78
2022-08-02T12:56:33.784Z,96241.88
2022-08-02T12:57:54.320Z,96242.88
2022-08-02T12:59:01.151Z,96240.84
2022-08-02T13:00:04.561Z,96232.53
2022-08-02T13:01:09.154Z,96239.28
2022-08-02T13:02:13.141Z,96233.50
2022-08-02T13:04:09.606Z,96220.28
2022-08-02T13:04:49.129Z,96227.59
2022-08-02T13:05:56.937Z,96226.97
2022-08-02T13:07:03.030Z,96214.09
2022-08-02T13:08:06.203Z,96223.06
2022-08-02T13:09:19.458Z,96219.72
2022-08-02T13:10:24.632Z,96230.69
2022-08-02T13:11:27.253Z,96237.53
2022-08-02T13:12:31.964Z,96225.84
2022-08-02T13:13:36.769Z,96221.06
2022-08-02T13:14:42.694Z,96216.91
2022-08-02T13:15:49.214Z,96213.75
2022-08-02T13:16:55.572Z,96219.47
2022-08-02T13:17:59.217Z,96216.56
2022-08-02T13:19:03.829Z,96227.19
2022-08-02T13:20:10.950Z,96222.81
2022-08-02T13:21:34.774Z,96219.94
2022-08-02T13:22:51.380Z,96223.59
2022-08-02T13:23:55.569Z,96224.41
2022-08-02T13:25:00.223Z,96229.94
2022-08-02T13:26:03.645Z,96229.41
2022-08-02T13:27:09.194Z,96229.25
2022-08-02T13:28:14.434Z,96224.03
2022-08-02T13:29:19.041Z,96213.75
2022-08-02T13:30:23.795Z,96218.16
2022-08-02T13:31:35.943Z,96212.94
2022-08-02T13:32:41.617Z,96220.44
2022-08-02T13:33:46.361Z,96209.09
2022-08-02T13:34:49.028Z,96217.91
2022-08-02T13:35:54.172Z,96216.22
2022-08-02T13:36:58.943Z,96218.25
2022-08-02T13:38:04.485Z,96215.56
2022-08-02T13:39:06.590Z,96215.03
2022-08-02T13:40:21.780Z,96219.25
2022-08-02T13:41:24.218Z,96226.09
2022-08-02T13:42:28.835Z,96222.31
2022-08-02T13:43:54.019Z,96219.06
2022-08-02T13:44:58.029Z,96213.69
2022-08-02T13:46:00.353Z,96213.91
2022-08-02T13:47:05.082Z,96216.09
2022-08-02T13:48:16.798Z,96215.81
2022-08-02T13:49:21.692Z,96218.34
2022-08-02T13:50:43.210Z,96218.59
2022-08-02T13:51:45.180Z,96213.84
2022-08-02T13:52:49.910Z,96211.56
2022-08-02T13:53:54.026Z,96212.00
2022-08-02T13:54:58.675Z,96206.66
2022-08-02T13:56:01.323Z,96204.78
2022-08-02T13:57:05.923Z,96203.50
2022-08-02T13:58:08.323Z,96200.66
2022-08-02T13:59:57.456Z,96199.84
2022-08-02T14:00:40.551Z,96192.19
2022-08-02T14:01:42.751Z,96189.09
2022-08-02T14:02:47.535Z,96190.28
2022-08-02T14:04:08.645Z,96197.44
2022-08-02T14:05:13.876Z,96197.25
2022-08-02T14:06:18.799Z,96196.28
2022-08-02T14:07:21.274Z,96194.63
2022-08-02T14:08:26.134Z,96197.00
2022-08-02T14:09:28.581Z,96192.44
2022-08-02T14:10:33.855Z,96190.53
2022-08-02T14:11:35.952Z,96199.38
2022-08-02T14:12:40.627Z,96187.25
2022-08-02T14:13:45.359Z,96190.34
2022-08-02T14:14:50.035Z,96180.44
2022-08-02T14:15:54.751Z,96183.47
2022-08-02T14:16:59.916Z,96179.13
2022-08-02T14:18:06.229Z,96178.88
2022-08-02T14:19:15.454Z,96172.13
2022-08-02T14:20:29.835Z,96190.50
2022-08-02T14:21:46.646Z,96191.84
2022-08-02T14:22:52.542Z,96173.16
2022-08-02T14:23:57.178Z,96181.91
2022-08-02T14:24:59.257Z,96174.31
2022-08-02T14:26:27.125Z,96178.91
2022-08-02T14:27:37.709Z,96174.28
2022-08-02T14:28:44.359Z,96184.59
2022-08-02T14:29:48.374Z,96180.69
2022-08-02T14:30:53.396Z,96181.66
2022-08-02T14:31:57.932Z,96183.03
2022-08-02T14:33:06.085Z,96180.03
2022-08-02T14:34:08.194Z,96186.06
2022-08-02T14:35:12.963Z,96176.06
2022-08-02T14:36:15.103Z,96184.69
2022-08-02T14:37:32.853Z,96179.47
2022-08-02T14:38:36.544Z,96179.94
2022-08-02T14:39:43.569Z,96177.56
2022-08-02T14:41:05.236Z,96179.38
2022-08-02T14:42:07.961Z,96178.69
2022-08-02T14:43:32.544Z,96171.06
2022-08-02T14:44:35.172Z,96174.53
2022-08-02T14:45:41.442Z,96172.25
2022-08-02T14:46:43.968Z,96171.25
2022-08-02T14:47:51.641Z,96170.06
